Time;durP1;ratioP1;P1;durP2;ratioP2;P2;SDS_P1;SDS_P2;PMS_P1;PMS_P2;Temp;Humidity;BMP_temperature;BMP_pressure;BME280_temperature;BME280_humidity;BME280_pressure;Samples;Min_cycle;Max_cycle;Signal;HPM_P1;HPM_P2
2022/08/06 00:02:25;;;;;;;1.55;1.23;;;;;;;;;;5019141;28;20114;-65
2022/08/06 00:04:52;;;;;;;7.95;1.50;;;;;;;;;;5023755;28;20129;-65
2022/08/06 00:07:17;;;;;;;2.30;1.08;;;;;;;;;;5031167;28;20021;-65
2022/08/06 00:09:43;;;;;;;1.80;1.10;;;;;;;;;;5025595;28;20411;-65
2022/08/06 00:12:08;;;;;;;2.90;1.25;;;;;;;;;;5026283;28;20717;-65
2022/08/06 00:14:34;;;;;;;2.45;1.27;;;;;;;;;;5022207;28;20064;-65
2022/08/06 00:17:00;;;;;;;3.65;1.70;;;;;;;;;;5025590;28;20537;-65
2022/08/06 00:19:26;;;;;;;1.73;1.30;;;;;;;;;;5021718;28;20033;-65
2022/08/06 00:21:52;;;;;;;1.60;1.00;;;;;;;;;;5025722;28;20045;-65
2022/08/06 00:24:18;;;;;;;4.30;1.30;;;;;;;;;;5027417;28;20564;-65
2022/08/06 00:26:44;;;;;;;1.52;1.13;;;;;;;;;;5028032;28;20677;-64
2022/08/06 00:29:10;;;;;;;1.50;1.27;;;;;;;;;;5029319;28;20148;-65
2022/08/06 00:31:35;;;;;;;3.35;1.40;;;;;;;;;;5026702;28;20072;-65
2022/08/06 00:34:02;;;;;;;1.52;1.15;;;;;;;;;;5026126;28;20606;-65
2022/08/06 00:36:29;;;;;;;3.72;1.40;;;;;;;;;;5025509;28;20090;-65
2022/08/06 00:38:55;;;;;;;1.40;1.15;;;;;;;;;;5022324;28;20034;-65
2022/08/06 00:41:22;;;;;;;1.88;1.30;;;;;;;;;;5024797;28;20025;-65
2022/08/06 00:43:48;;;;;;;1.45;1.23;;;;;;;;;;5022417;28;20487;-64
2022/08/06 00:46:13;;;;;;;3.67;1.40;;;;;;;;;;5023225;28;20025;-65
2022/08/06 00:48:38;;;;;;;3.03;1.40;;;;;;;;;;5022262;28;20499;-64
2022/08/06 00:51:04;;;;;;;2.88;1.52;;;;;;;;;;5024846;28;20042;-65
2022/08/06 00:53:29;;;;;;;2.13;1.20;;;;;;;;;;5036929;28;20457;-65
2022/08/06 00:55:55;;;;;;;1.65;1.17;;;;;;;;;;5028604;28;20022;-64
2022/08/06 00:58:20;;;;;;;1.65;1.30;;;;;;;;;;5037149;28;20064;-65
2022/08/06 01:00:45;;;;;;;1.95;1.23;;;;;;;;;;5024901;28;20064;-65
2022/08/06 01:03:11;;;;;;;1.70;1.27;;;;;;;;;;5029054;28;20033;-65
2022/08/06 01:05:37;;;;;;;1.75;1.40;;;;;;;;;;5023768;28;20041;-65
2022/08/06 01:08:02;;;;;;;1.63;1.05;;;;;;;;;;5030678;28;20028;-64
2022/08/06 01:10:28;;;;;;;3.25;1.48;;;;;;;;;;5018775;28;20033;-65
2022/08/06 01:12:53;;;;;;;4.95;1.73;;;;;;;;;;5024263;28;20666;-65
2022/08/06 01:15:19;;;;;;;5.28;1.30;;;;;;;;;;5020001;28;20038;-65
2022/08/06 01:18:00;;;;;;;1.70;1.20;;;;;;;;;;5022788;28;20039;-65
2022/08/06 01:21:11;;;;;;;2.85;1.30;;;;;;;;;;5025331;28;20034;-65
2022/08/06 01:24:21;;;;;;;1.42;1.20;;;;;;;;;;5022767;28;20548;-65
2022/08/06 01:26:50;;;;;;;1.30;1.10;;;;;;;;;;5021067;28;20045;-65
2022/08/06 01:29:23;;;;;;;2.08;1.20;;;;;;;;;;5019716;28;20136;-64
2022/08/06 01:32:03;;;;;;;2.75;1.40;;;;;;;;;;5012443;28;20036;-65
2022/08/06 01:34:32;;;;;;;4.93;1.35;;;;;;;;;;5026202;28;20136;-65
2022/08/06 01:37:11;;;;;;;5.32;1.50;;;;;;;;;;5024940;28;20029;-65
2022/08/06 01:39:40;;;;;;;1.77;1.15;;;;;;;;;;5017164;28;20045;-65
2022/08/06 01:42:08;;;;;;;1.95;1.25;;;;;;;;;;5021055;28;20095;-65
2022/08/06 01:44:36;;;;;;;2.17;1.60;;;;;;;;;;5014005;28;20463;-64
2022/08/06 01:47:06;;;;;;;1.77;1.30;;;;;;;;;;5020385;28;20048;-65
2022/08/06 01:49:33;;;;;;;1.40;1.30;;;;;;;;;;5009357;28;20083;-65
2022/08/06 01:52:00;;;;;;;2.65;1.40;;;;;;;;;;5017728;28;20130;-65
2022/08/06 01:54:28;;;;;;;3.03;1.48;;;;;;;;;;5023275;28;20046;-65
2022/08/06 01:56:55;;;;;;;3.83;1.30;;;;;;;;;;5027769;28;20591;-65
2022/08/06 01:59:26;;;;;;;2.88;1.45;;;;;;;;;;5028825;28;20037;-65
2022/08/06 02:01:54;;;;;;;3.20;1.35;;;;;;;;;;5019356;28;20041;-65
2022/08/06 02:04:23;;;;;;;2.13;1.40;;;;;;;;;;5025898;28;20037;-65
2022/08/06 02:06:52;;;;;;;2.08;1.30;;;;;;;;;;5032400;28;20033;-65
2022/08/06 02:09:20;;;;;;;4.18;1.30;;;;;;;;;;5028696;28;20044;-65
2022/08/06 02:11:53;;;;;;;2.47;1.30;;;;;;;;;;5027383;28;20068;-65
2022/08/06 02:14:20;;;;;;;2.22;1.23;;;;;;;;;;5027024;28;20108;-64
2022/08/06 02:16:46;;;;;;;2.42;1.50;;;;;;;;;;5024339;28;20029;-65
2022/08/06 02:19:14;;;;;;;1.50;1.27;;;;;;;;;;5024679;28;20526;-64
2022/08/06 02:21:42;;;;;;;1.30;1.20;;;;;;;;;;5028230;28;20087;-65
2022/08/06 02:24:09;;;;;;;3.55;1.40;;;;;;;;;;5015438;28;20034;-65
2022/08/06 02:26:37;;;;;;;2.97;1.35;;;;;;;;;;5023632;28;20033;-65
2022/08/06 02:29:08;;;;;;;1.65;1.30;;;;;;;;;;5025284;28;20419;-64
2022/08/06 02:31:34;;;;;;;3.75;1.67;;;;;;;;;;5025773;28;20013;-65
2022/08/06 02:34:00;;;;;;;3.92;1.45;;;;;;;;;;5027396;28;20118;-64
2022/08/06 02:36:40;;;;;;;2.88;1.42;;;;;;;;;;5029853;28;20486;-65
2022/08/06 02:39:18;;;;;;;3.50;1.23;;;;;;;;;;5027715;28;20037;-64
2022/08/06 02:41:53;;;;;;;7.60;1.40;;;;;;;;;;5026851;28;20044;-65
2022/08/06 02:44:47;;;;;;;1.73;1.27;;;;;;;;;;5022119;28;20053;-64
2022/08/06 02:47:36;;;;;;;1.85;1.30;;;;;;;;;;5021771;28;20033;-65
2022/08/06 02:50:05;;;;;;;4.00;1.50;;;;;;;;;;5025162;28;20674;-64
2022/08/06 02:52:53;;;;;;;2.85;1.48;;;;;;;;;;5029519;28;20025;-64
2022/08/06 02:55:23;;;;;;;3.25;1.25;;;;;;;;;;5018949;28;20466;-65
2022/08/06 02:57:59;;;;;;;2.90;1.33;;;;;;;;;;5029286;28;20037;-65
2022/08/06 03:00:25;;;;;;;4.28;1.40;;;;;;;;;;5023485;28;20038;-64
2022/08/06 03:02:55;;;;;;;1.95;1.05;;;;;;;;;;5020895;28;20069;-64
2022/08/06 03:05:22;;;;;;;1.45;1.15;;;;;;;;;;5018769;28;20044;-64
2022/08/06 03:07:51;;;;;;;3.35;1.52;;;;;;;;;;5027721;28;20021;-64
2022/08/06 03:10:22;;;;;;;2.13;1.30;;;;;;;;;;5022217;28;20033;-64
2022/08/06 03:12:49;;;;;;;1.67;1.20;;;;;;;;;;5028368;28;20132;-64
2022/08/06 03:15:16;;;;;;;2.90;1.65;;;;;;;;;;5022251;28;20392;-65
2022/08/06 03:17:43;;;;;;;2.55;1.30;;;;;;;;;;5023339;28;20037;-65
2022/08/06 03:20:10;;;;;;;1.08;0.93;;;;;;;;;;5020438;28;20129;-64
2022/08/06 03:22:37;;;;;;;3.05;1.40;;;;;;;;;;5026351;28;20079;-64
2022/08/06 03:25:05;;;;;;;2.92;1.52;;;;;;;;;;5021904;28;20025;-65
2022/08/06 03:27:31;;;;;;;3.63;1.38;;;;;;;;;;5023235;28;20527;-65
2022/08/06 03:29:59;;;;;;;2.38;1.30;;;;;;;;;;5025176;28;20528;-64
2022/08/06 03:32:25;;;;;;;1.60;1.30;;;;;;;;;;5022753;28;20411;-64
2022/08/06 03:34:52;;;;;;;2.72;1.52;;;;;;;;;;5026444;28;20514;-65
2022/08/06 03:37:19;;;;;;;1.40;1.20;;;;;;;;;;5025297;28;20109;-64
2022/08/06 03:39:46;;;;;;;2.08;1.40;;;;;;;;;;5024388;28;20032;-65
2022/08/06 03:42:11;;;;;;;1.90;1.33;;;;;;;;;;5030183;28;20992;-65
2022/08/06 03:44:36;;;;;;;4.55;1.48;;;;;;;;;;5021596;28;20037;-64
2022/08/06 03:47:09;;;;;;;1.15;1.00;;;;;;;;;;5026604;28;20025;-64
2022/08/06 03:49:41;;;;;;;3.30;1.40;;;;;;;;;;5023273;28;20092;-64
2022/08/06 03:52:10;;;;;;;5.50;1.50;;;;;;;;;;5022590;28;20328;-64
2022/08/06 03:54:42;;;;;;;1.92;1.55;;;;;;;;;;5018172;28;20080;-66
2022/08/06 03:57:15;;;;;;;2.28;1.10;;;;;;;;;;5025212;28;20541;-64
2022/08/06 03:59:42;;;;;;;;;;;;;;;;;;5020180;28;20581;-65
2022/08/06 04:02:09;;;;;;;2.47;1.10;;;;;;;;;;5017992;28;19921;-64
2022/08/06 04:04:36;;;;;;;3.05;1.55;;;;;;;;;;5022602;28;20026;-64
2022/08/06 04:07:02;;;;;;;2.03;1.38;;;;;;;;;;5026758;28;20041;-65
2022/08/06 04:09:30;;;;;;;1.77;1.20;;;;;;;;;;5022685;28;20033;-65
2022/08/06 04:11:56;;;;;;;2.85;1.52;;;;;;;;;;5020871;28;20513;-64
2022/08/06 04:14:23;;;;;;;5.95;1.50;;;;;;;;;;5029996;28;20044;-65
2022/08/06 04:16:49;;;;;;;2.25;1.63;;;;;;;;;;5020254;28;20063;-64
2022/08/06 04:19:18;;;;;;;2.38;1.50;;;;;;;;;;5024872;28;20095;-64
2022/08/06 04:21:45;;;;;;;1.98;1.38;;;;;;;;;;5026547;28;20049;-65
2022/08/06 04:24:11;;;;;;;3.92;1.40;;;;;;;;;;5024675;28;20044;-65
2022/08/06 04:26:38;;;;;;;1.15;1.05;;;;;;;;;;5016669;28;20049;-64
2022/08/06 04:29:06;;;;;;;4.60;1.30;;;;;;;;;;5016380;28;20060;-65
2022/08/06 04:31:33;;;;;;;3.13;1.33;;;;;;;;;;5021918;28;20036;-65
2022/08/06 04:34:00;;;;;;;2.20;1.35;;;;;;;;;;5019512;28;20550;-64
2022/08/06 04:36:27;;;;;;;2.13;1.60;;;;;;;;;;5020938;28;20041;-64
2022/08/06 04:38:53;;;;;;;2.80;1.33;;;;;;;;;;5019122;28;20033;-64
2022/08/06 04:41:19;;;;;;;3.70;1.52;;;;;;;;;;5020399;28;20052;-64
2022/08/06 04:43:45;;;;;;;4.00;1.50;;;;;;;;;;5025360;28;20029;-65
2022/08/06 04:46:11;;;;;;;3.45;1.23;;;;;;;;;;5024015;28;20513;-65
2022/08/06 04:48:37;;;;;;;2.40;1.40;;;;;;;;;;5020592;28;20049;-64
2022/08/06 04:51:04;;;;;;;2.47;1.30;;;;;;;;;;5020653;28;20044;-65
2022/08/06 04:53:36;;;;;;;3.17;1.50;;;;;;;;;;5019924;28;20040;-65
2022/08/06 04:56:01;;;;;;;1.65;1.20;;;;;;;;;;5016927;28;20569;-64
2022/08/06 04:58:27;;;;;;;3.10;1.75;;;;;;;;;;5027858;28;20033;-65
2022/08/06 05:00:52;;;;;;;4.10;1.70;;;;;;;;;;5017782;28;20033;-64
2022/08/06 05:03:17;;;;;;;2.60;2.28;;;;;;;;;;5023090;28;20083;-64
2022/08/06 05:05:52;;;;;;;3.40;1.65;;;;;;;;;;5022816;28;20045;-65
2022/08/06 05:08:20;;;;;;;2.35;1.33;;;;;;;;;;5026228;28;20056;-64
2022/08/06 05:10:54;;;;;;;4.85;1.67;;;;;;;;;;5021300;28;20010;-65
2022/08/06 05:13:22;;;;;;;4.22;1.85;;;;;;;;;;5024361;28;20471;-65
2022/08/06 05:15:54;;;;;;;2.22;1.30;;;;;;;;;;5020242;28;20038;-64
2022/08/06 05:18:25;;;;;;;1.90;1.30;;;;;;;;;;5019526;28;20526;-64
2022/08/06 05:20:54;;;;;;;3.35;1.42;;;;;;;;;;5022036;28;20045;-65
2022/08/06 05:23:40;;;;;;;2.92;1.48;;;;;;;;;;5025240;28;20129;-65
2022/08/06 05:26:06;;;;;;;1.83;1.42;;;;;;;;;;5023047;28;20033;-65
2022/08/06 05:28:32;;;;;;;1.45;1.20;;;;;;;;;;5030282;28;20052;-65
2022/08/06 05:30:57;;;;;;;2.10;1.33;;;;;;;;;;5023380;28;20443;-65
2022/08/06 05:33:27;;;;;;;5.30;1.60;;;;;;;;;;5027870;28;20129;-65
2022/08/06 05:35:54;;;;;;;2.47;1.60;;;;;;;;;;5031620;28;20033;-65
2022/08/06 05:38:19;;;;;;;4.72;1.55;;;;;;;;;;5026119;28;20040;-65
2022/08/06 05:40:45;;;;;;;2.47;1.45;;;;;;;;;;5030004;28;20026;-65
2022/08/06 05:43:10;;;;;;;1.52;1.38;;;;;;;;;;5028321;28;20044;-65
2022/08/06 05:45:38;;;;;;;4.65;1.58;;;;;;;;;;5026932;28;21024;-65
2022/08/06 05:48:05;;;;;;;5.30;1.58;;;;;;;;;;5022969;28;20099;-65
2022/08/06 05:50:34;;;;;;;3.92;1.40;;;;;;;;;;5026865;28;20025;-64
2022/08/06 05:53:08;;;;;;;3.10;1.60;;;;;;;;;;5025834;28;20029;-65
2022/08/06 05:55:51;;;;;;;5.03;2.20;;;;;;;;;;5028644;28;20542;-65
2022/08/06 05:58:29;;;;;;;3.20;1.80;;;;;;;;;;5023186;28;20072;-64
2022/08/06 06:01:00;;;;;;;2.20;1.65;;;;;;;;;;5020778;28;20026;-64
2022/08/06 06:03:25;;;;;;;2.88;2.20;;;;;;;;;;5017906;28;20592;-64
2022/08/06 06:05:53;;;;;;;3.08;2.00;;;;;;;;;;5025815;28;20033;-65
2022/08/06 06:08:19;;;;;;;6.63;2.00;;;;;;;;;;5025137;28;20053;-64
2022/08/06 06:10:45;;;;;;;10.77;2.30;;;;;;;;;;5024565;28;20052;-64
2022/08/06 06:13:12;;;;;;;3.90;1.95;;;;;;;;;;5024752;28;20099;-64
2022/08/06 06:15:43;;;;;;;8.48;2.30;;;;;;;;;;5023863;28;20384;-67
2022/08/06 06:18:15;;;;;;;5.38;2.25;;;;;;;;;;5026087;28;20052;-64
2022/08/06 06:21:03;;;;;;;2.97;1.92;;;;;;;;;;5023122;28;20558;-65
2022/08/06 06:23:35;;;;;;;4.07;1.90;;;;;;;;;;5030132;28;20038;-65
2022/08/06 06:26:07;;;;;;;3.10;2.17;;;;;;;;;;5023706;28;20079;-65
2022/08/06 06:29:01;;;;;;;3.95;2.20;;;;;;;;;;5033576;28;20037;-65
2022/08/06 06:31:28;;;;;;;4.15;2.17;;;;;;;;;;5027380;28;20132;-65
2022/08/06 06:34:05;;;;;;;2.92;2.10;;;;;;;;;;5025262;28;20239;-65
2022/08/06 06:36:49;;;;;;;5.55;2.28;;;;;;;;;;5029428;28;20034;-65
2022/08/06 06:39:17;;;;;;;;;;;;;;;;;;5030771;28;20125;-65
2022/08/06 06:41:53;;;;;;;5.38;2.53;;;;;;;;;;5030877;28;20354;-65
2022/08/06 06:44:30;;;;;;;6.20;2.30;;;;;;;;;;5025181;28;20029;-65
2022/08/06 06:47:03;;;;;;;5.28;2.22;;;;;;;;;;5024840;28;21128;-65
2022/08/06 06:49:31;;;;;;;3.72;2.38;;;;;;;;;;5024117;28;20079;-65
2022/08/06 06:52:12;;;;;;;6.15;2.40;;;;;;;;;;5026601;28;20041;-65
2022/08/06 06:54:48;;;;;;;4.25;2.40;;;;;;;;;;5012986;28;20057;-64
2022/08/06 06:57:18;;;;;;;5.63;2.10;;;;;;;;;;5021665;28;20107;-65
2022/08/06 06:59:47;;;;;;;4.53;2.78;;;;;;;;;;5021867;28;20118;-65
2022/08/06 07:02:20;;;;;;;4.80;2.40;;;;;;;;;;5017136;28;20750;-65
2022/08/06 07:04:47;;;;;;;5.38;2.53;;;;;;;;;;5019875;28;20044;-65
2022/08/06 07:07:13;;;;;;;3.17;2.30;;;;;;;;;;5018176;28;20038;-65
2022/08/06 07:09:40;;;;;;;6.30;2.50;;;;;;;;;;5018835;28;20048;-65
2022/08/06 07:12:08;;;;;;;5.53;2.47;;;;;;;;;;5018848;28;20483;-65
2022/08/06 07:14:35;;;;;;;4.20;2.20;;;;;;;;;;5024830;28;20037;-65
2022/08/06 07:17:03;;;;;;;4.20;2.35;;;;;;;;;;5019494;28;20021;-65
2022/08/06 07:19:30;;;;;;;3.78;2.28;;;;;;;;;;5019042;28;20542;-65
2022/08/06 07:21:56;;;;;;;7.32;2.30;;;;;;;;;;5024926;28;20503;-65
2022/08/06 07:24:24;;;;;;;3.47;2.10;;;;;;;;;;5022221;28;20033;-65
2022/08/06 07:26:51;;;;;;;3.88;1.90;;;;;;;;;;5019141;28;20108;-65
2022/08/06 07:29:17;;;;;;;5.35;1.92;;;;;;;;;;5018308;28;20121;-65
2022/08/06 07:31:44;;;;;;;4.18;1.77;;;;;;;;;;5018526;28;20029;-65
2022/08/06 07:34:10;;;;;;;3.60;1.63;;;;;;;;;;5016763;28;20129;-65
2022/08/06 07:36:46;;;;;;;2.92;1.90;;;;;;;;;;5017068;28;20039;-65
2022/08/06 07:39:17;;;;;;;4.78;1.48;;;;;;;;;;5016654;28;20092;-65
2022/08/06 07:41:44;;;;;;;2.42;1.30;;;;;;;;;;5016541;28;20044;-65
2022/08/06 07:44:11;;;;;;;2.75;1.60;;;;;;;;;;5016746;28;20492;-65
2022/08/06 07:46:41;;;;;;;2.67;1.23;;;;;;;;;;5017738;28;20031;-65
2022/08/06 07:49:08;;;;;;;4.43;1.67;;;;;;;;;;5015594;28;20033;-65
2022/08/06 07:51:40;;;;;;;5.30;1.35;;;;;;;;;;5018913;28;20555;-65
2022/08/06 07:54:07;;;;;;;3.35;1.48;;;;;;;;;;5016781;28;20112;-65
2022/08/06 07:56:35;;;;;;;5.80;1.40;;;;;;;;;;5017591;28;20044;-65
2022/08/06 07:59:03;;;;;;;4.53;1.50;;;;;;;;;;5020729;28;20021;-65
2022/08/06 08:01:29;;;;;;;3.13;1.77;;;;;;;;;;5019067;28;20116;-65
2022/08/06 08:06:41;;;;;;;2.25;1.33;;;;;;;;;;5020045;28;20088;-65
2022/08/06 08:09:10;;;;;;;3.95;1.63;;;;;;;;;;5019090;28;20033;-65
2022/08/06 08:11:40;;;;;;;4.65;1.30;;;;;;;;;;5018355;28;20045;-65
2022/08/06 08:14:07;;;;;;;2.67;1.20;;;;;;;;;;5017486;28;20506;-65
2022/08/06 08:16:33;;;;;;;2.90;1.23;;;;;;;;;;5020084;28;20108;-65
2022/08/06 08:18:59;;;;;;;5.32;1.48;;;;;;;;;;5019805;28;20474;-64
2022/08/06 08:21:25;;;;;;;3.08;1.33;;;;;;;;;;5022061;28;20038;-65
2022/08/06 08:23:51;;;;;;;3.17;1.25;;;;;;;;;;5016641;28;20041;-65
2022/08/06 08:26:16;;;;;;;1.98;1.20;;;;;;;;;;5014043;28;20038;-65
2022/08/06 08:28:42;;;;;;;5.32;1.23;;;;;;;;;;5020208;28;20029;-65
2022/08/06 08:31:08;;;;;;;5.35;1.30;;;;;;;;;;5024999;28;20034;-65
2022/08/06 08:33:34;;;;;;;2.75;1.30;;;;;;;;;;5017039;28;20124;-65
2022/08/06 08:36:00;;;;;;;8.00;1.30;;;;;;;;;;5017081;28;20676;-65
2022/08/06 08:38:30;;;;;;;2.22;0.90;;;;;;;;;;5021777;28;20033;-65
2022/08/06 08:40:58;;;;;;;1.73;1.05;;;;;;;;;;5017781;28;20026;-65
2022/08/06 08:43:30;;;;;;;3.13;1.00;;;;;;;;;;5017143;28;20029;-65
2022/08/06 08:45:57;;;;;;;2.90;1.10;;;;;;;;;;5009822;28;20030;-65
2022/08/06 08:48:28;;;;;;;2.03;0.93;;;;;;;;;;5014512;28;20597;-65
2022/08/06 08:50:57;;;;;;;2.55;1.20;;;;;;;;;;5020932;28;20040;-65
2022/08/06 08:53:33;;;;;;;1.90;1.00;;;;;;;;;;5013712;28;20037;-63
2022/08/06 08:55:59;;;;;;;1.75;1.10;;;;;;;;;;5018825;28;20037;-65
2022/08/06 08:58:25;;;;;;;3.55;1.13;;;;;;;;;;5015368;28;20029;-65
2022/08/06 09:00:51;;;;;;;4.63;1.30;;;;;;;;;;5015015;28;20038;-65
2022/08/06 09:03:16;;;;;;;2.95;1.38;;;;;;;;;;5019559;28;20043;-65
2022/08/06 09:05:42;;;;;;;4.95;1.25;;;;;;;;;;5021861;28;20103;-65
2022/08/06 09:08:09;;;;;;;4.22;1.55;;;;;;;;;;5021492;28;20629;-65
2022/08/06 09:10:35;;;;;;;3.20;1.38;;;;;;;;;;5022964;28;20092;-65
2022/08/06 09:13:01;;;;;;;3.38;1.25;;;;;;;;;;5022610;28;20542;-65
2022/08/06 09:15:26;;;;;;;5.65;1.00;;;;;;;;;;5018646;28;20392;-65
2022/08/06 09:17:51;;;;;;;2.47;0.90;;;;;;;;;;5024566;28;20587;-65
2022/08/06 09:20:17;;;;;;;2.10;0.93;;;;;;;;;;5019746;28;20060;-65
2022/08/06 09:22:52;;;;;;;3.42;1.05;;;;;;;;;;5022289;28;20044;-65
2022/08/06 09:25:44;;;;;;;3.75;1.02;;;;;;;;;;5023172;28;20041;-65
2022/08/06 09:28:30;;;;;;;6.38;1.40;;;;;;;;;;5023178;28;20125;-65
2022/08/06 09:31:02;;;;;;;6.40;1.17;;;;;;;;;;5022606;28;20045;-64
2022/08/06 09:33:29;;;;;;;1.85;0.98;;;;;;;;;;5023540;28;20554;-65
2022/08/06 09:36:00;;;;;;;1.58;1.08;;;;;;;;;;5022020;28;20120;-65
2022/08/06 09:38:27;;;;;;;2.35;1.13;;;;;;;;;;5023791;28;20137;-65
2022/08/06 09:41:26;;;;;;;3.90;1.20;;;;;;;;;;5021136;28;20132;-65
2022/08/06 09:43:53;;;;;;;2.55;1.10;;;;;;;;;;5012783;28;20065;-65
2022/08/06 09:46:40;;;;;;;8.77;1.58;;;;;;;;;;5021143;28;20048;-65
2022/08/06 09:49:08;;;;;;;2.40;1.48;;;;;;;;;;5026161;28;20061;-65
2022/08/06 09:51:34;;;;;;;6.10;1.65;;;;;;;;;;5023731;28;20048;-65
2022/08/06 09:54:02;;;;;;;2.78;1.30;;;;;;;;;;5023317;28;20064;-65
2022/08/06 09:56:28;;;;;;;3.60;1.23;;;;;;;;;;5020232;28;20052;-65
2022/08/06 09:59:02;;;;;;;2.63;1.20;;;;;;;;;;5027132;28;20037;-65
2022/08/06 10:01:28;;;;;;;1.73;1.30;;;;;;;;;;5031286;28;20040;-65
2022/08/06 10:03:56;;;;;;;6.18;1.33;;;;;;;;;;5028048;28;20033;-65
2022/08/06 10:06:23;;;;;;;2.38;1.20;;;;;;;;;;5025687;28;20610;-65
2022/08/06 10:08:50;;;;;;;3.65;1.45;;;;;;;;;;5023977;28;20041;-65
2022/08/06 10:11:33;;;;;;;2.92;1.33;;;;;;;;;;5023821;28;20572;-65
2022/08/06 10:13:58;;;;;;;3.40;1.13;;;;;;;;;;5018525;28;20083;-65
2022/08/06 10:16:26;;;;;;;2.58;1.20;;;;;;;;;;5021383;28;20603;-65
2022/08/06 10:18:53;;;;;;;2.65;1.30;;;;;;;;;;5022004;28;20116;-65
2022/08/06 10:21:22;;;;;;;3.10;1.20;;;;;;;;;;5019768;28;20042;-65
2022/08/06 10:23:52;;;;;;;3.05;1.20;;;;;;;;;;5019923;28;20061;-65
2022/08/06 10:26:24;;;;;;;4.20;1.50;;;;;;;;;;5022776;28;20041;-65
2022/08/06 10:28:51;;;;;;;3.67;1.38;;;;;;;;;;5029645;28;20106;-65
2022/08/06 10:31:17;;;;;;;2.30;1.30;;;;;;;;;;5028649;28;20032;-65
2022/08/06 10:33:57;;;;;;;3.60;1.60;;;;;;;;;;5023146;28;20044;-65
2022/08/06 10:36:52;;;;;;;4.07;1.33;;;;;;;;;;5022135;28;20514;-66
2022/08/06 10:39:25;;;;;;;3.20;1.52;;;;;;;;;;5016729;28;20072;-65
2022/08/06 10:41:52;;;;;;;3.17;1.40;;;;;;;;;;5022024;28;20040;-65
2022/08/06 10:44:18;;;;;;;1.65;1.13;;;;;;;;;;5021739;28;20092;-65
2022/08/06 10:46:43;;;;;;;3.92;1.30;;;;;;;;;;5022940;28;20602;-65
2022/08/06 10:49:10;;;;;;;1.85;1.25;;;;;;;;;;5030494;28;20087;-66
2022/08/06 10:51:36;;;;;;;3.08;1.40;;;;;;;;;;5012607;28;20617;-65
2022/08/06 10:54:03;;;;;;;4.53;1.23;;;;;;;;;;5011047;28;20732;-65
2022/08/06 10:56:28;;;;;;;1.58;1.00;;;;;;;;;;5017099;28;20120;-65
2022/08/06 10:58:54;;;;;;;2.92;1.02;;;;;;;;;;5019242;28;20032;-65
2022/08/06 11:02:00;;;;;;;2.45;1.00;;;;;;;;;;5018268;28;20037;-65
2022/08/06 11:04:38;;;;;;;3.05;1.40;;;;;;;;;;5019804;28;20060;-65
2022/08/06 11:07:32;;;;;;;2.85;1.13;;;;;;;;;;5019094;28;20073;-65
2022/08/06 11:10:25;;;;;;;1.30;1.20;;;;;;;;;;5019004;28;20116;-65
2022/08/06 11:12:58;;;;;;;1.13;0.93;;;;;;;;;;5019378;28;20045;-65
2022/08/06 11:15:24;;;;;;;2.13;1.08;;;;;;;;;;5018608;28;20029;-65
2022/08/06 11:17:53;;;;;;;1.10;1.00;;;;;;;;;;5019566;28;20676;-66
2022/08/06 11:20:33;;;;;;;2.72;0.90;;;;;;;;;;5016627;28;20053;-65
2022/08/06 11:23:00;;;;;;;2.75;1.10;;;;;;;;;;5019904;28;20115;-66
2022/08/06 11:25:45;;;;;;;2.10;1.17;;;;;;;;;;5018334;28;20458;-66
2022/08/06 11:28:12;;;;;;;2.38;1.10;;;;;;;;;;5019022;28;20065;-65
2022/08/06 11:30:48;;;;;;;1.77;1.00;;;;;;;;;;5018649;28;20038;-65
2022/08/06 11:33:17;;;;;;;1.83;1.00;;;;;;;;;;5020965;28;20082;-66
2022/08/06 11:35:46;;;;;;;1.63;1.10;;;;;;;;;;5022100;28;20033;-66
2022/08/06 11:38:14;;;;;;;2.50;1.30;;;;;;;;;;5024616;28;20034;-65
2022/08/06 11:40:59;;;;;;;1.77;1.10;;;;;;;;;;5026413;28;20053;-65
2022/08/06 11:43:40;;;;;;;5.30;1.30;;;;;;;;;;5026492;28;20045;-66
2022/08/06 11:46:21;;;;;;;2.83;1.20;;;;;;;;;;5025765;28;20045;-65
2022/08/06 11:48:59;;;;;;;1.95;1.30;;;;;;;;;;5022786;28;20049;-65
2022/08/06 11:51:40;;;;;;;2.92;1.48;;;;;;;;;;5011759;28;20476;-65
2022/08/06 11:54:30;;;;;;;2.97;1.58;;;;;;;;;;5015870;28;20128;-65
2022/08/06 11:56:59;;;;;;;2.72;1.40;;;;;;;;;;5024890;28;20048;-65
2022/08/06 11:59:25;;;;;;;3.78;1.58;;;;;;;;;;5018959;28;20780;-65
2022/08/06 12:01:51;;;;;;;1.70;1.35;;;;;;;;;;5017692;28;20036;-65
2022/08/06 12:04:38;;;;;;;2.42;1.50;;;;;;;;;;5020981;28;20074;-65
2022/08/06 12:07:14;;;;;;;4.68;1.80;;;;;;;;;;5020331;28;20037;-65
2022/08/06 12:09:39;;;;;;;2.20;1.67;;;;;;;;;;5024932;28;20042;-66
2022/08/06 12:12:23;;;;;;;2.35;1.50;;;;;;;;;;5017643;28;20036;-66
2022/08/06 12:14:48;;;;;;;4.72;2.00;;;;;;;;;;5025415;28;20049;-66
2022/08/06 12:17:14;;;;;;;3.97;1.90;;;;;;;;;;5020761;28;20510;-65
2022/08/06 12:19:44;;;;;;;2.63;1.80;;;;;;;;;;5022516;28;20047;-66
2022/08/06 12:22:12;;;;;;;3.85;1.67;;;;;;;;;;5025633;28;20041;-66
2022/08/06 12:24:38;;;;;;;3.50;1.65;;;;;;;;;;5023039;28;20029;-66
2022/08/06 12:27:07;;;;;;;4.97;2.20;;;;;;;;;;5024622;28;20456;-66
2022/08/06 12:29:32;;;;;;;2.95;2.30;;;;;;;;;;5021939;28;20521;-66
2022/08/06 12:31:58;;;;;;;2.70;2.13;;;;;;;;;;5024711;28;20029;-66
2022/08/06 12:34:25;;;;;;;3.65;1.90;;;;;;;;;;5026340;28;20025;-66
2022/08/06 12:36:51;;;;;;;3.75;1.70;;;;;;;;;;5027018;28;20033;-66
2022/08/06 12:39:17;;;;;;;4.75;3.03;;;;;;;;;;5024234;28;20047;-66
2022/08/06 12:41:42;;;;;;;3.85;2.85;;;;;;;;;;5024722;28;20035;-66
2022/08/06 12:44:08;;;;;;;5.82;3.00;;;;;;;;;;5021978;28;20115;-66
2022/08/06 12:46:34;;;;;;;3.50;2.80;;;;;;;;;;5024691;28;20039;-66
2022/08/06 12:49:00;;;;;;;4.57;2.58;;;;;;;;;;5023902;28;20029;-66
2022/08/06 12:51:25;;;;;;;5.30;2.42;;;;;;;;;;5015652;28;20045;-66
2022/08/06 12:53:57;;;;;;;3.33;1.90;;;;;;;;;;5019028;28;20067;-66
2022/08/06 12:56:24;;;;;;;2.72;2.17;;;;;;;;;;5025458;28;20083;-66
2022/08/06 12:58:51;;;;;;;5.43;2.28;;;;;;;;;;5028861;28;20060;-66
2022/08/06 13:01:19;;;;;;;5.65;2.00;;;;;;;;;;5022921;28;20026;-66
2022/08/06 13:03:46;;;;;;;3.50;1.95;;;;;;;;;;5020403;28;20038;-66
2022/08/06 13:06:14;;;;;;;3.13;2.08;;;;;;;;;;5031371;28;20513;-66
2022/08/06 13:08:41;;;;;;;6.75;2.35;;;;;;;;;;5027131;28;20431;-66
2022/08/06 13:11:07;;;;;;;2.47;1.88;;;;;;;;;;5025089;28;20570;-66
2022/08/06 13:13:38;;;;;;;3.92;1.63;;;;;;;;;;5025546;28;20108;-66
2022/08/06 13:16:10;;;;;;;2.38;2.17;;;;;;;;;;5020666;28;20132;-66
2022/08/06 13:18:36;;;;;;;3.90;2.37;;;;;;;;;;5026251;28;20038;-66
2022/08/06 13:21:03;;;;;;;3.05;1.90;;;;;;;;;;5022828;28;20120;-66
2022/08/06 13:23:32;;;;;;;3.22;1.98;;;;;;;;;;5021263;28;20037;-66
2022/08/06 13:25:58;;;;;;;2.72;1.85;;;;;;;;;;5023229;28;20039;-66
2022/08/06 13:28:24;;;;;;;1.98;1.70;;;;;;;;;;5027064;28;20025;-66
2022/08/06 13:30:50;;;;;;;3.03;1.90;;;;;;;;;;5023389;28;20041;-66
2022/08/06 13:33:17;;;;;;;2.42;2.00;;;;;;;;;;5027181;28;20128;-66
2022/08/06 13:35:44;;;;;;;2.30;1.90;;;;;;;;;;5035921;28;20041;-66
2022/08/06 13:38:09;;;;;;;2.72;2.08;;;;;;;;;;5026886;28;20033;-66
2022/08/06 13:40:43;;;;;;;2.53;2.00;;;;;;;;;;5024486;28;20075;-66
2022/08/06 13:43:09;;;;;;;2.53;1.70;;;;;;;;;;5025494;28;20045;-66
2022/08/06 13:45:35;;;;;;;2.45;1.60;;;;;;;;;;5026082;28;20099;-66
2022/08/06 13:48:06;;;;;;;2.78;1.80;;;;;;;;;;5026211;28;20033;-66
2022/08/06 13:50:33;;;;;;;1.90;1.70;;;;;;;;;;5025851;28;20029;-66
2022/08/06 13:52:59;;;;;;;3.35;2.05;;;;;;;;;;5023865;28;20030;-66
2022/08/06 13:55:25;;;;;;;1.85;1.70;;;;;;;;;;5028865;28;20434;-66
2022/08/06 13:57:52;;;;;;;1.92;1.60;;;;;;;;;;5021456;28;20034;-66
2022/08/06 14:00:18;;;;;;;2.60;1.80;;;;;;;;;;5023762;28;20044;-66
2022/08/06 14:02:43;;;;;;;2.85;1.55;;;;;;;;;;5023355;28;20033;-66
2022/08/06 14:05:09;;;;;;;1.98;1.50;;;;;;;;;;5023954;28;20108;-66
2022/08/06 14:07:34;;;;;;;3.10;1.40;;;;;;;;;;5034548;28;20021;-66
2022/08/06 14:10:00;;;;;;;1.98;1.48;;;;;;;;;;5021907;28;20087;-66
2022/08/06 14:12:25;;;;;;;2.70;1.35;;;;;;;;;;5024976;28;20045;-66
2022/08/06 14:14:51;;;;;;;1.42;1.27;;;;;;;;;;5025568;28;20037;-66
2022/08/06 14:17:16;;;;;;;1.83;1.38;;;;;;;;;;5027484;28;20418;-66
2022/08/06 14:19:42;;;;;;;2.20;1.27;;;;;;;;;;5026926;28;20071;-66
2022/08/06 14:22:08;;;;;;;5.78;1.38;;;;;;;;;;5025835;28;20060;-66
2022/08/06 14:24:34;;;;;;;1.48;1.33;;;;;;;;;;5027546;28;20037;-66
2022/08/06 14:26:59;;;;;;;1.67;1.30;;;;;;;;;;5025143;28;20102;-66
2022/08/06 14:29:25;;;;;;;4.90;1.38;;;;;;;;;;5021259;28;20037;-66
2022/08/06 14:31:50;;;;;;;1.67;1.30;;;;;;;;;;5024517;28;20029;-66
2022/08/06 14:34:16;;;;;;;1.80;1.20;;;;;;;;;;5025375;28;20457;-66
2022/08/06 14:36:42;;;;;;;1.85;1.60;;;;;;;;;;5027947;28;20037;-66
2022/08/06 14:39:11;;;;;;;3.05;1.50;;;;;;;;;;5024862;28;20068;-66
2022/08/06 14:47:07;;;;;;;2.00;1.80;;;;;;;;;;5024332;28;20036;-66
2022/08/06 14:49:33;;;;;;;2.78;1.75;;;;;;;;;;5027074;28;20109;-66
2022/08/06 14:51:58;;;;;;;2.50;1.60;;;;;;;;;;5028496;28;20056;-66
2022/08/06 14:54:24;;;;;;;2.92;1.30;;;;;;;;;;5026310;28;20046;-65
2022/08/06 14:56:49;;;;;;;2.40;1.50;;;;;;;;;;5028073;28;20034;-66
2022/08/06 14:59:15;;;;;;;1.88;1.60;;;;;;;;;;5026084;28;20091;-66
2022/08/06 15:01:40;;;;;;;1.60;1.50;;;;;;;;;;5018928;28;20026;-66
2022/08/06 15:04:06;;;;;;;4.45;1.50;;;;;;;;;;5010541;28;20100;-66
2022/08/06 15:06:31;;;;;;;3.13;1.95;;;;;;;;;;5033699;28;20032;-66